This is the latest recevied weather packets stored in our database for station/object N4CRH-13. If no packets are shown the sender has not sent any weather packets the latest 10 day(s).
| Time | Temp. | Humidity | Pressure | Rain* | Wind** | Luminosity | Snow |
|---|---|---|---|---|---|---|---|
| 1777153298 | 10.56° C | 44% | 1286.8 hPa | 0 mm | - | 144 W/m² | - |
| 1777152994 | 11.11° C | 44% | 1286.8 hPa | 0 mm | - | 198 W/m² | - |
| 1777152691 | 11.11° C | 43% | 1286.9 hPa | 0 mm | - | 238 W/m² | - |
| 1777152388 | 11.11° C | 44% | 1287 hPa | 0 mm | - | 284 W/m² | - |
| 1777152084 | 11.11° C | 44% | 1286.9 hPa | 0 mm | - | 191 W/m² | - |
| 1777151779 | 11.67° C | 43% | 1286.9 hPa | 0 mm | - | 198 W/m² | - |
| 1777151476 | 12.22° C | 41% | 1287.2 hPa | 0 mm | - | 252 W/m² | - |
| 1777151171 | 11.67° C | 41% | 1287.2 hPa | 0 mm | - | 478 W/m² | - |
| 1777150865 | 11.11° C | 43% | 1287 hPa | 0 mm | - | 224 W/m² | - |
| 1777150561 | 11.67° C | 42% | 1286.9 hPa | 0 mm | - | 182 W/m² | - |
| 1777150256 | 11.67° C | 42% | 1287.2 hPa | 0 mm | - | 212 W/m² | - |
| 1777149955 | 11.67° C | 42% | 1287.2 hPa | 0 mm | - | 344 W/m² | - |
| 1777149650 | 11.67° C | 41% | 1287 hPa | 0 mm | - | 219 W/m² | - |
| 1777149347 | 11.67° C | 41% | 1287.3 hPa | 0 mm | - | 241 W/m² | - |
| 1777149043 | 12.22° C | 40% | 1287.2 hPa | 0 mm | - | 223 W/m² | - |
| 1777148738 | 12.22° C | 41% | 1287 hPa | 0 mm | - | 231 W/m² | - |
| 1777148434 | 12.22° C | 39% | 1287 hPa | 0 mm | - | 227 W/m² | - |
| 1777148131 | 11.67° C | 41% | 1286.9 hPa | 0 mm | - | 258 W/m² | - |
| 1777147826 | 11.67° C | 40% | 1287 hPa | 0 mm | - | 339 W/m² | - |
| 1777147522 | 12.22° C | 40% | 1287 hPa | 0 mm | - | 260 W/m² | - |
| 1777147218 | 12.22° C | 40% | 1287 hPa | 0 mm | - | 251 W/m² | - |
| 1777146915 | 12.78° C | 39% | 1287.3 hPa | 0 mm | - | 402 W/m² | - |
* Rain latest hour (hover to see other rain measurements)
** Current wind speed in m/s (hover to see current wind gust speed)